sensor_id;sensor_type;location;lat;lon;timestamp;P1;durP1;ratioP1;P2;durP2;ratioP2
8476;SDS011;4275;42.854;23.222;2023-09-18T00:02:21;8.82;;;8.63;;
8476;SDS011;4275;42.854;23.222;2023-09-18T00:04:47;8.57;;;8.38;;
8476;SDS011;4275;42.854;23.222;2023-09-18T00:07:14;8.57;;;8.38;;
8476;SDS011;4275;42.854;23.222;2023-09-18T00:09:41;8.60;;;8.40;;
8476;SDS011;4275;42.854;23.222;2023-09-18T00:12:08;8.50;;;8.30;;
8476;SDS011;4275;42.854;23.222;2023-09-18T00:14:35;8.45;;;8.25;;
8476;SDS011;4275;42.854;23.222;2023-09-18T00:17:03;8.52;;;8.32;;
8476;SDS011;4275;42.854;23.222;2023-09-18T00:19:31;8.30;;;8.10;;
8476;SDS011;4275;42.854;23.222;2023-09-18T00:21:59;8.30;;;8.10;;
8476;SDS011;4275;42.854;23.222;2023-09-18T00:24:26;8.23;;;8.02;;
8476;SDS011;4275;42.854;23.222;2023-09-18T00:26:53;8.00;;;7.80;;
8476;SDS011;4275;42.854;23.222;2023-09-18T00:29:20;8.27;;;8.07;;
8476;SDS011;4275;42.854;23.222;2023-09-18T00:31:47;8.77;;;8.57;;
8476;SDS011;4275;42.854;23.222;2023-09-18T00:34:14;8.50;;;8.30;;
8476;SDS011;4275;42.854;23.222;2023-09-18T00:36:42;8.80;;;8.60;;
8476;SDS011;4275;42.854;23.222;2023-09-18T00:39:14;8.88;;;8.68;;
8476;SDS011;4275;42.854;23.222;2023-09-18T00:41:45;8.43;;;8.23;;
8476;SDS011;4275;42.854;23.222;2023-09-18T00:44:14;8.90;;;8.70;;
8476;SDS011;4275;42.854;23.222;2023-09-18T00:46:41;9.50;;;9.20;;
8476;SDS011;4275;42.854;23.222;2023-09-18T00:49:09;8.80;;;8.60;;
8476;SDS011;4275;42.854;23.222;2023-09-18T00:55:08;8.57;;;8.38;;
8476;SDS011;4275;42.854;23.222;2023-09-18T00:57:36;8.90;;;8.70;;
8476;SDS011;4275;42.854;23.222;2023-09-18T01:00:05;9.38;;;9.07;;
8476;SDS011;4275;42.854;23.222;2023-09-18T01:02:34;9.20;;;8.90;;
8476;SDS011;4275;42.854;23.222;2023-09-18T01:05:01;9.75;;;9.45;;
8476;SDS011;4275;42.854;23.222;2023-09-18T01:07:28;9.73;;;9.43;;
8476;SDS011;4275;42.854;23.222;2023-09-18T01:09:55;9.75;;;9.45;;
8476;SDS011;4275;42.854;23.222;2023-09-18T01:12:26;9.27;;;9.00;;
8476;SDS011;4275;42.854;23.222;2023-09-18T01:15:01;9.40;;;9.10;;
8476;SDS011;4275;42.854;23.222;2023-09-18T01:17:34;9.90;;;9.60;;
8476;SDS011;4275;42.854;23.222;2023-09-18T01:20:04;10.23;;;9.93;;
8476;SDS011;4275;42.854;23.222;2023-09-18T01:22:34;10.05;;;9.75;;
8476;SDS011;4275;42.854;23.222;2023-09-18T01:25:01;10.10;;;9.80;;
8476;SDS011;4275;42.854;23.222;2023-09-18T01:27:28;10.32;;;10.02;;
8476;SDS011;4275;42.854;23.222;2023-09-18T01:29:55;10.20;;;9.90;;
8476;SDS011;4275;42.854;23.222;2023-09-18T01:32:23;10.00;;;9.70;;
8476;SDS011;4275;42.854;23.222;2023-09-18T01:34:53;9.93;;;9.63;;
8476;SDS011;4275;42.854;23.222;2023-09-18T01:37:23;9.65;;;9.35;;
8476;SDS011;4275;42.854;23.222;2023-09-18T01:39:54;9.48;;;9.18;;
8476;SDS011;4275;42.854;23.222;2023-09-18T01:42:24;8.90;;;8.70;;
8476;SDS011;4275;42.854;23.222;2023-09-18T01:44:52;9.25;;;9.00;;
8476;SDS011;4275;42.854;23.222;2023-09-18T01:47:20;9.05;;;8.85;;
8476;SDS011;4275;42.854;23.222;2023-09-18T01:52:34;9.48;;;9.18;;
8476;SDS011;4275;42.854;23.222;2023-09-18T01:55:05;9.18;;;8.98;;
8476;SDS011;4275;42.854;23.222;2023-09-18T01:57:32;9.52;;;9.23;;
8476;SDS011;4275;42.854;23.222;2023-09-18T01:59:59;8.60;;;8.40;;
8476;SDS011;4275;42.854;23.222;2023-09-18T02:02:27;9.40;;;9.10;;
8476;SDS011;4275;42.854;23.222;2023-09-18T02:04:54;9.65;;;9.35;;
8476;SDS011;4275;42.854;23.222;2023-09-18T02:07:21;9.15;;;8.95;;
8476;SDS011;4275;42.854;23.222;2023-09-18T02:09:48;9.45;;;9.15;;
8476;SDS011;4275;42.854;23.222;2023-09-18T02:12:17;9.60;;;9.30;;
8476;SDS011;4275;42.854;23.222;2023-09-18T02:14:44;9.70;;;9.40;;
8476;SDS011;4275;42.854;23.222;2023-09-18T02:17:11;10.25;;;9.95;;
8476;SDS011;4275;42.854;23.222;2023-09-18T02:19:38;9.70;;;9.40;;
8476;SDS011;4275;42.854;23.222;2023-09-18T02:22:08;9.90;;;9.60;;
8476;SDS011;4275;42.854;23.222;2023-09-18T02:24:35;10.35;;;10.05;;
8476;SDS011;4275;42.854;23.222;2023-09-18T02:27:03;10.20;;;9.90;;
8476;SDS011;4275;42.854;23.222;2023-09-18T02:29:32;10.48;;;10.18;;
8476;SDS011;4275;42.854;23.222;2023-09-18T02:31:59;10.32;;;10.02;;
8476;SDS011;4275;42.854;23.222;2023-09-18T02:34:35;10.40;;;10.10;;
8476;SDS011;4275;42.854;23.222;2023-09-18T02:40:10;9.95;;;9.65;;
8476;SDS011;4275;42.854;23.222;2023-09-18T02:42:38;9.77;;;9.48;;
8476;SDS011;4275;42.854;23.222;2023-09-18T02:45:07;9.63;;;9.32;;
8476;SDS011;4275;42.854;23.222;2023-09-18T02:47:35;9.50;;;9.20;;
8476;SDS011;4275;42.854;23.222;2023-09-18T02:50:03;9.77;;;9.48;;
8476;SDS011;4275;42.854;23.222;2023-09-18T02:52:31;9.65;;;9.35;;
8476;SDS011;4275;42.854;23.222;2023-09-18T02:54:58;9.50;;;9.20;;
8476;SDS011;4275;42.854;23.222;2023-09-18T02:57:25;9.80;;;9.50;;
8476;SDS011;4275;42.854;23.222;2023-09-18T02:59:52;10.05;;;9.75;;
8476;SDS011;4275;42.854;23.222;2023-09-18T03:02:20;10.48;;;10.18;;
8476;SDS011;4275;42.854;23.222;2023-09-18T03:04:47;10.00;;;9.70;;
8476;SDS011;4275;42.854;23.222;2023-09-18T03:07:14;10.00;;;9.70;;
8476;SDS011;4275;42.854;23.222;2023-09-18T03:09:41;10.13;;;9.82;;
8476;SDS011;4275;42.854;23.222;2023-09-18T03:12:09;10.07;;;9.77;;
8476;SDS011;4275;42.854;23.222;2023-09-18T03:14:36;10.30;;;10.00;;
8476;SDS011;4275;42.854;23.222;2023-09-18T03:17:03;10.00;;;9.70;;
8476;SDS011;4275;42.854;23.222;2023-09-18T03:19:32;10.20;;;9.90;;
8476;SDS011;4275;42.854;23.222;2023-09-18T03:21:59;10.20;;;9.90;;
8476;SDS011;4275;42.854;23.222;2023-09-18T03:24:26;10.23;;;9.93;;
8476;SDS011;4275;42.854;23.222;2023-09-18T03:26:53;10.10;;;9.80;;
8476;SDS011;4275;42.854;23.222;2023-09-18T03:29:19;9.75;;;9.45;;
8476;SDS011;4275;42.854;23.222;2023-09-18T03:31:47;9.60;;;9.30;;
8476;SDS011;4275;42.854;23.222;2023-09-18T03:34:14;9.77;;;9.48;;
8476;SDS011;4275;42.854;23.222;2023-09-18T03:36:42;9.80;;;9.50;;
8476;SDS011;4275;42.854;23.222;2023-09-18T03:39:09;9.75;;;9.45;;
8476;SDS011;4275;42.854;23.222;2023-09-18T03:41:36;10.55;;;10.25;;
8476;SDS011;4275;42.854;23.222;2023-09-18T03:44:04;9.77;;;9.48;;
8476;SDS011;4275;42.854;23.222;2023-09-18T03:46:31;9.55;;;9.25;;
8476;SDS011;4275;42.854;23.222;2023-09-18T03:48:58;9.43;;;9.13;;
8476;SDS011;4275;42.854;23.222;2023-09-18T03:51:25;9.60;;;9.30;;
8476;SDS011;4275;42.854;23.222;2023-09-18T03:53:54;8.90;;;8.70;;
8476;SDS011;4275;42.854;23.222;2023-09-18T03:56:21;8.90;;;8.70;;
8476;SDS011;4275;42.854;23.222;2023-09-18T03:58:48;9.25;;;8.95;;
8476;SDS011;4275;42.854;23.222;2023-09-18T04:01:16;9.35;;;9.05;;
8476;SDS011;4275;42.854;23.222;2023-09-18T04:03:43;8.88;;;8.68;;
8476;SDS011;4275;42.854;23.222;2023-09-18T04:06:10;9.32;;;9.02;;
8476;SDS011;4275;42.854;23.222;2023-09-18T04:08:37;9.70;;;9.40;;
8476;SDS011;4275;42.854;23.222;2023-09-18T04:11:06;9.90;;;9.60;;
8476;SDS011;4275;42.854;23.222;2023-09-18T04:13:34;9.98;;;9.68;;
8476;SDS011;4275;42.854;23.222;2023-09-18T04:16:03;8.98;;;8.77;;
8476;SDS011;4275;42.854;23.222;2023-09-18T04:18:30;8.77;;;8.57;;
8476;SDS011;4275;42.854;23.222;2023-09-18T04:20:58;8.68;;;8.48;;
8476;SDS011;4275;42.854;23.222;2023-09-18T04:23:25;8.48;;;8.27;;
8476;SDS011;4275;42.854;23.222;2023-09-18T04:25:53;8.65;;;8.45;;
8476;SDS011;4275;42.854;23.222;2023-09-18T04:28:24;8.70;;;8.50;;
8476;SDS011;4275;42.854;23.222;2023-09-18T04:30:51;9.10;;;8.90;;
8476;SDS011;4275;42.854;23.222;2023-09-18T04:33:18;8.85;;;8.65;;
8476;SDS011;4275;42.854;23.222;2023-09-18T04:35:46;9.30;;;9.00;;
8476;SDS011;4275;42.854;23.222;2023-09-18T04:38:14;9.55;;;9.25;;
8476;SDS011;4275;42.854;23.222;2023-09-18T04:40:42;9.77;;;9.48;;
8476;SDS011;4275;42.854;23.222;2023-09-18T04:43:09;9.95;;;9.65;;
8476;SDS011;4275;42.854;23.222;2023-09-18T04:45:37;9.70;;;9.40;;
8476;SDS011;4275;42.854;23.222;2023-09-18T04:48:04;10.10;;;9.80;;
8476;SDS011;4275;42.854;23.222;2023-09-18T04:50:33;10.25;;;9.95;;
8476;SDS011;4275;42.854;23.222;2023-09-18T04:53:00;10.60;;;10.30;;
8476;SDS011;4275;42.854;23.222;2023-09-18T04:55:29;10.70;;;10.40;;
8476;SDS011;4275;42.854;23.222;2023-09-18T04:57:56;10.50;;;10.20;;
8476;SDS011;4275;42.854;23.222;2023-09-18T05:00:24;10.50;;;10.20;;
8476;SDS011;4275;42.854;23.222;2023-09-18T05:02:53;10.65;;;10.35;;
8476;SDS011;4275;42.854;23.222;2023-09-18T05:05:20;11.00;;;10.70;;
8476;SDS011;4275;42.854;23.222;2023-09-18T05:07:47;10.90;;;10.60;;
8476;SDS011;4275;42.854;23.222;2023-09-18T05:10:14;10.88;;;10.57;;
8476;SDS011;4275;42.854;23.222;2023-09-18T05:12:41;11.90;;;11.60;;
8476;SDS011;4275;42.854;23.222;2023-09-18T05:15:09;11.70;;;11.40;;
8476;SDS011;4275;42.854;23.222;2023-09-18T05:17:41;11.05;;;10.75;;
8476;SDS011;4275;42.854;23.222;2023-09-18T05:20:13;11.10;;;10.80;;
8476;SDS011;4275;42.854;23.222;2023-09-18T05:22:42;11.77;;;11.48;;
8476;SDS011;4275;42.854;23.222;2023-09-18T05:25:10;11.63;;;11.32;;
8476;SDS011;4275;42.854;23.222;2023-09-18T05:27:39;12.43;;;12.02;;
8476;SDS011;4275;42.854;23.222;2023-09-18T05:30:12;12.75;;;12.35;;
8476;SDS011;4275;42.854;23.222;2023-09-18T05:32:41;12.48;;;12.07;;
8476;SDS011;4275;42.854;23.222;2023-09-18T05:35:09;13.07;;;12.68;;
8476;SDS011;4275;42.854;23.222;2023-09-18T05:37:39;13.40;;;13.00;;
8476;SDS011;4275;42.854;23.222;2023-09-18T05:40:07;13.10;;;12.70;;
8476;SDS011;4275;42.854;23.222;2023-09-18T05:42:35;12.68;;;12.27;;
8476;SDS011;4275;42.854;23.222;2023-09-18T05:45:03;13.18;;;12.77;;
8476;SDS011;4275;42.854;23.222;2023-09-18T05:47:32;12.32;;;11.93;;
8476;SDS011;4275;42.854;23.222;2023-09-18T05:50:00;13.02;;;12.63;;
8476;SDS011;4275;42.854;23.222;2023-09-18T05:52:30;12.55;;;12.15;;
8476;SDS011;4275;42.854;23.222;2023-09-18T05:54:58;13.38;;;12.98;;
8476;SDS011;4275;42.854;23.222;2023-09-18T05:57:25;13.60;;;13.20;;
8476;SDS011;4275;42.854;23.222;2023-09-18T05:59:53;13.02;;;12.63;;
8476;SDS011;4275;42.854;23.222;2023-09-18T06:02:20;12.70;;;12.30;;
8476;SDS011;4275;42.854;23.222;2023-09-18T06:04:48;12.65;;;12.25;;
8476;SDS011;4275;42.854;23.222;2023-09-18T06:07:15;12.80;;;12.40;;
8476;SDS011;4275;42.854;23.222;2023-09-18T06:09:43;12.70;;;12.30;;
8476;SDS011;4275;42.854;23.222;2023-09-18T06:12:12;13.50;;;13.10;;
8476;SDS011;4275;42.854;23.222;2023-09-18T06:14:39;13.15;;;12.75;;
8476;SDS011;4275;42.854;23.222;2023-09-18T06:17:06;14.02;;;13.52;;
8476;SDS011;4275;42.854;23.222;2023-09-18T06:19:34;14.18;;;13.68;;
8476;SDS011;4275;42.854;23.222;2023-09-18T06:22:02;14.80;;;14.30;;
8476;SDS011;4275;42.854;23.222;2023-09-18T06:24:32;13.73;;;13.23;;
8476;SDS011;4275;42.854;23.222;2023-09-18T06:26:58;14.35;;;13.85;;
8476;SDS011;4275;42.854;23.222;2023-09-18T06:29:27;14.27;;;13.77;;
8476;SDS011;4275;42.854;23.222;2023-09-18T06:31:54;14.70;;;14.20;;
8476;SDS011;4275;42.854;23.222;2023-09-18T06:34:21;14.75;;;14.25;;
8476;SDS011;4275;42.854;23.222;2023-09-18T06:36:48;15.40;;;14.80;;
8476;SDS011;4275;42.854;23.222;2023-09-18T06:39:15;15.32;;;14.73;;
8476;SDS011;4275;42.854;23.222;2023-09-18T06:41:42;15.35;;;14.75;;
8476;SDS011;4275;42.854;23.222;2023-09-18T06:44:09;14.93;;;14.32;;
8476;SDS011;4275;42.854;23.222;2023-09-18T06:46:37;15.20;;;14.60;;
8476;SDS011;4275;42.854;23.222;2023-09-18T06:49:04;15.50;;;14.90;;
8476;SDS011;4275;42.854;23.222;2023-09-18T06:51:31;15.30;;;14.70;;
8476;SDS011;4275;42.854;23.222;2023-09-18T06:53:58;15.98;;;15.38;;
8476;SDS011;4275;42.854;23.222;2023-09-18T06:56:27;16.52;;;15.82;;
8476;SDS011;4275;42.854;23.222;2023-09-18T06:58:54;16.10;;;15.48;;
8476;SDS011;4275;42.854;23.222;2023-09-18T07:01:21;16.23;;;15.52;;
8476;SDS011;4275;42.854;23.222;2023-09-18T07:03:51;16.58;;;15.88;;
8476;SDS011;4275;42.854;23.222;2023-09-18T07:06:18;16.58;;;15.88;;
8476;SDS011;4275;42.854;23.222;2023-09-18T07:08:45;16.67;;;15.98;;
8476;SDS011;4275;42.854;23.222;2023-09-18T07:11:14;17.33;;;16.52;;
8476;SDS011;4275;42.854;23.222;2023-09-18T07:13:42;17.23;;;16.42;;
8476;SDS011;4275;42.854;23.222;2023-09-18T07:16:09;18.88;;;17.98;;
8476;SDS011;4275;42.854;23.222;2023-09-18T07:18:37;21.42;;;20.27;;
8476;SDS011;4275;42.854;23.222;2023-09-18T07:21:05;17.90;;;17.00;;
8476;SDS011;4275;42.854;23.222;2023-09-18T07:23:32;18.00;;;17.10;;
8476;SDS011;4275;42.854;23.222;2023-09-18T07:26:02;18.05;;;17.15;;
8476;SDS011;4275;42.854;23.222;2023-09-18T07:28:29;17.02;;;16.13;;
8476;SDS011;4275;42.854;23.222;2023-09-18T07:30:56;17.55;;;16.65;;
8476;SDS011;4275;42.854;23.222;2023-09-18T07:33:23;18.10;;;17.20;;
8476;SDS011;4275;42.854;23.222;2023-09-18T07:35:50;17.13;;;16.23;;
8476;SDS011;4275;42.854;23.222;2023-09-18T07:38:19;18.00;;;17.00;;
8476;SDS011;4275;42.854;23.222;2023-09-18T07:40:46;17.98;;;16.98;;
8476;SDS011;4275;42.854;23.222;2023-09-18T07:43:14;18.05;;;17.05;;
8476;SDS011;4275;42.854;23.222;2023-09-18T07:45:41;18.98;;;17.88;;
8476;SDS011;4275;42.854;23.222;2023-09-18T07:48:08;19.20;;;18.10;;
8476;SDS011;4275;42.854;23.222;2023-09-18T07:50:35;19.63;;;18.52;;
8476;SDS011;4275;42.854;23.222;2023-09-18T07:53:02;19.33;;;18.23;;
8476;SDS011;4275;42.854;23.222;2023-09-18T07:55:31;19.17;;;18.08;;
8476;SDS011;4275;42.854;23.222;2023-09-18T07:57:58;18.10;;;17.10;;
8476;SDS011;4275;42.854;23.222;2023-09-18T08:00:25;18.38;;;17.38;;
8476;SDS011;4275;42.854;23.222;2023-09-18T08:02:52;18.75;;;17.75;;
8476;SDS011;4275;42.854;23.222;2023-09-18T08:05:24;18.98;;;17.88;;
8476;SDS011;4275;42.854;23.222;2023-09-18T08:07:53;19.15;;;18.15;;
8476;SDS011;4275;42.854;23.222;2023-09-18T08:10:22;18.60;;;17.60;;
8476;SDS011;4275;42.854;23.222;2023-09-18T08:12:50;18.20;;;17.20;;
8476;SDS011;4275;42.854;23.222;2023-09-18T08:15:18;18.70;;;17.70;;
8476;SDS011;4275;42.854;23.222;2023-09-18T08:17:46;19.15;;;18.05;;
8476;SDS011;4275;42.854;23.222;2023-09-18T08:20:14;18.83;;;17.80;;
8476;SDS011;4275;42.854;23.222;2023-09-18T08:22:42;18.65;;;17.65;;
8476;SDS011;4275;42.854;23.222;2023-09-18T08:25:09;19.05;;;17.95;;
8476;SDS011;4275;42.854;23.222;2023-09-18T08:27:37;18.95;;;17.85;;
8476;SDS011;4275;42.854;23.222;2023-09-18T08:30:09;18.80;;;17.70;;
8476;SDS011;4275;42.854;23.222;2023-09-18T08:32:37;18.77;;;17.77;;
8476;SDS011;4275;42.854;23.222;2023-09-18T08:35:04;19.15;;;18.05;;
8476;SDS011;4275;42.854;23.222;2023-09-18T08:37:32;18.77;;;17.77;;
8476;SDS011;4275;42.854;23.222;2023-09-18T08:39:59;18.75;;;17.70;;
8476;SDS011;4275;42.854;23.222;2023-09-18T08:42:34;19.00;;;18.00;;
8476;SDS011;4275;42.854;23.222;2023-09-18T08:45:02;19.05;;;18.05;;
8476;SDS011;4275;42.854;23.222;2023-09-18T08:47:37;19.23;;;18.17;;
8476;SDS011;4275;42.854;23.222;2023-09-18T08:50:08;18.85;;;17.85;;
8476;SDS011;4275;42.854;23.222;2023-09-18T08:52:36;19.10;;;18.10;;
8476;SDS011;4275;42.854;23.222;2023-09-18T08:55:03;19.10;;;18.10;;
8476;SDS011;4275;42.854;23.222;2023-09-18T08:57:31;19.15;;;18.15;;
8476;SDS011;4275;42.854;23.222;2023-09-18T09:00:00;19.35;;;18.27;;
8476;SDS011;4275;42.854;23.222;2023-09-18T09:02:31;18.80;;;17.80;;
8476;SDS011;4275;42.854;23.222;2023-09-18T09:05:00;19.23;;;18.23;;
8476;SDS011;4275;42.854;23.222;2023-09-18T09:07:27;18.95;;;17.95;;
8476;SDS011;4275;42.854;23.222;2023-09-18T09:09:56;18.70;;;17.70;;
8476;SDS011;4275;42.854;23.222;2023-09-18T09:15:21;19.02;;;18.02;;
8476;SDS011;4275;42.854;23.222;2023-09-18T09:17:50;18.67;;;17.67;;
8476;SDS011;4275;42.854;23.222;2023-09-18T09:20:19;18.77;;;17.77;;
8476;SDS011;4275;42.854;23.222;2023-09-18T09:22:46;18.92;;;17.92;;
8476;SDS011;4275;42.854;23.222;2023-09-18T09:25:22;18.77;;;17.77;;
8476;SDS011;4275;42.854;23.222;2023-09-18T09:27:51;18.60;;;17.60;;
8476;SDS011;4275;42.854;23.222;2023-09-18T09:30:19;19.13;;;18.13;;
8476;SDS011;4275;42.854;23.222;2023-09-18T09:32:49;18.60;;;17.60;;
8476;SDS011;4275;42.854;23.222;2023-09-18T09:35:22;18.60;;;17.60;;
8476;SDS011;4275;42.854;23.222;2023-09-18T09:37:52;18.67;;;17.67;;
8476;SDS011;4275;42.854;23.222;2023-09-18T09:40:21;18.90;;;17.90;;
8476;SDS011;4275;42.854;23.222;2023-09-18T09:42:50;18.90;;;17.90;;
8476;SDS011;4275;42.854;23.222;2023-09-18T09:45:19;18.88;;;17.88;;
8476;SDS011;4275;42.854;23.222;2023-09-18T09:47:46;18.90;;;17.90;;
8476;SDS011;4275;42.854;23.222;2023-09-18T09:50:15;19.02;;;18.02;;
8476;SDS011;4275;42.854;23.222;2023-09-18T09:52:46;18.88;;;17.88;;
8476;SDS011;4275;42.854;23.222;2023-09-18T09:55:18;19.02;;;18.02;;
8476;SDS011;4275;42.854;23.222;2023-09-18T09:57:46;18.92;;;17.92;;
8476;SDS011;4275;42.854;23.222;2023-09-18T10:00:14;19.08;;;17.98;;
8476;SDS011;4275;42.854;23.222;2023-09-18T10:02:53;18.60;;;17.60;;
8476;SDS011;4275;42.854;23.222;2023-09-18T10:05:24;19.08;;;17.98;;
8476;SDS011;4275;42.854;23.222;2023-09-18T10:07:55;18.83;;;17.73;;
8476;SDS011;4275;42.854;23.222;2023-09-18T10:10:26;18.65;;;17.65;;
8476;SDS011;4275;42.854;23.222;2023-09-18T10:12:57;18.77;;;17.75;;
8476;SDS011;4275;42.854;23.222;2023-09-18T10:15:31;18.75;;;17.65;;
8476;SDS011;4275;42.854;23.222;2023-09-18T10:18:04;18.88;;;17.88;;
8476;SDS011;4275;42.854;23.222;2023-09-18T10:20:39;18.70;;;17.67;;
8476;SDS011;4275;42.854;23.222;2023-09-18T10:23:15;18.67;;;17.67;;
8476;SDS011;4275;42.854;23.222;2023-09-18T10:25:50;18.85;;;17.77;;
8476;SDS011;4275;42.854;23.222;2023-09-18T10:28:23;18.85;;;17.75;;
8476;SDS011;4275;42.854;23.222;2023-09-18T10:30:52;18.55;;;17.55;;
8476;SDS011;4275;42.854;23.222;2023-09-18T10:33:22;18.50;;;17.50;;
8476;SDS011;4275;42.854;23.222;2023-09-18T10:35:50;18.48;;;17.48;;
8476;SDS011;4275;42.854;23.222;2023-09-18T10:38:20;18.48;;;17.48;;
8476;SDS011;4275;42.854;23.222;2023-09-18T10:40:48;19.20;;;18.10;;
8476;SDS011;4275;42.854;23.222;2023-09-18T10:43:17;18.52;;;17.52;;
8476;SDS011;4275;42.854;23.222;2023-09-18T10:45:45;18.70;;;17.70;;
8476;SDS011;4275;42.854;23.222;2023-09-18T10:48:13;18.52;;;17.52;;
8476;SDS011;4275;42.854;23.222;2023-09-18T10:50:42;18.70;;;17.70;;
8476;SDS011;4275;42.854;23.222;2023-09-18T10:53:11;18.38;;;17.38;;
8476;SDS011;4275;42.854;23.222;2023-09-18T10:55:40;18.25;;;17.25;;
8476;SDS011;4275;42.854;23.222;2023-09-18T10:58:08;18.30;;;17.30;;
8476;SDS011;4275;42.854;23.222;2023-09-18T11:00:35;18.58;;;17.58;;
8476;SDS011;4275;42.854;23.222;2023-09-18T11:03:09;18.45;;;17.45;;
8476;SDS011;4275;42.854;23.222;2023-09-18T11:05:37;18.98;;;17.88;;
8476;SDS011;4275;42.854;23.222;2023-09-18T11:11:02;18.77;;;17.73;;
8476;SDS011;4275;42.854;23.222;2023-09-18T11:13:35;18.58;;;17.58;;
8476;SDS011;4275;42.854;23.222;2023-09-18T11:16:13;18.60;;;17.60;;
8476;SDS011;4275;42.854;23.222;2023-09-18T11:18:42;18.52;;;17.52;;
8476;SDS011;4275;42.854;23.222;2023-09-18T11:21:09;18.38;;;17.38;;
8476;SDS011;4275;42.854;23.222;2023-09-18T11:23:37;18.27;;;17.27;;
8476;SDS011;4275;42.854;23.222;2023-09-18T11:26:09;18.40;;;17.40;;
8476;SDS011;4275;42.854;23.222;2023-09-18T11:28:37;18.40;;;17.40;;
8476;SDS011;4275;42.854;23.222;2023-09-18T11:31:04;18.55;;;17.55;;
8476;SDS011;4275;42.854;23.222;2023-09-18T11:33:32;18.50;;;17.50;;
8476;SDS011;4275;42.854;23.222;2023-09-18T11:36:03;18.40;;;17.40;;
8476;SDS011;4275;42.854;23.222;2023-09-18T11:38:32;18.27;;;17.27;;
8476;SDS011;4275;42.854;23.222;2023-09-18T11:41:01;18.40;;;17.40;;
8476;SDS011;4275;42.854;23.222;2023-09-18T11:43:48;18.60;;;17.50;;
8476;SDS011;4275;42.854;23.222;2023-09-18T11:46:17;18.77;;;17.67;;
8476;SDS011;4275;42.854;23.222;2023-09-18T11:48:46;18.48;;;17.40;;
8476;SDS011;4275;42.854;23.222;2023-09-18T11:51:15;18.77;;;17.67;;
8476;SDS011;4275;42.854;23.222;2023-09-18T11:53:49;18.95;;;17.90;;
8476;SDS011;4275;42.854;23.222;2023-09-18T11:56:21;18.63;;;17.63;;
8476;SDS011;4275;42.854;23.222;2023-09-18T11:58:49;18.83;;;17.83;;
8476;SDS011;4275;42.854;23.222;2023-09-18T12:01:17;18.80;;;17.80;;
8476;SDS011;4275;42.854;23.222;2023-09-18T12:03:45;18.85;;;17.85;;
8476;SDS011;4275;42.854;23.222;2023-09-18T12:06:14;19.20;;;18.10;;
8476;SDS011;4275;42.854;23.222;2023-09-18T12:08:41;18.73;;;17.73;;
8476;SDS011;4275;42.854;23.222;2023-09-18T12:11:08;18.63;;;17.63;;
8476;SDS011;4275;42.854;23.222;2023-09-18T12:13:37;18.63;;;17.63;;
8476;SDS011;4275;42.854;23.222;2023-09-18T12:16:05;18.63;;;17.63;;
8476;SDS011;4275;42.854;23.222;2023-09-18T12:18:34;18.20;;;17.20;;
8476;SDS011;4275;42.854;23.222;2023-09-18T12:21:05;18.60;;;17.60;;
8476;SDS011;4275;42.854;23.222;2023-09-18T12:23:39;19.17;;;18.08;;
8476;SDS011;4275;42.854;23.222;2023-09-18T12:26:07;19.00;;;17.90;;
8476;SDS011;4275;42.854;23.222;2023-09-18T12:28:39;19.10;;;18.00;;
8476;SDS011;4275;42.854;23.222;2023-09-18T12:31:09;18.92;;;17.83;;
8476;SDS011;4275;42.854;23.222;2023-09-18T12:33:37;18.83;;;17.73;;
8476;SDS011;4275;42.854;23.222;2023-09-18T12:36:04;18.80;;;17.70;;
8476;SDS011;4275;42.854;23.222;2023-09-18T12:38:32;18.63;;;17.63;;
8476;SDS011;4275;42.854;23.222;2023-09-18T12:41:00;18.88;;;17.77;;
8476;SDS011;4275;42.854;23.222;2023-09-18T12:43:35;19.60;;;18.50;;
8476;SDS011;4275;42.854;23.222;2023-09-18T12:46:05;18.95;;;17.85;;
8476;SDS011;4275;42.854;23.222;2023-09-18T12:48:36;19.13;;;18.02;;
8476;SDS011;4275;42.854;23.222;2023-09-18T12:51:04;19.38;;;18.27;;
8476;SDS011;4275;42.854;23.222;2023-09-18T12:53:32;19.25;;;18.15;;
8476;SDS011;4275;42.854;23.222;2023-09-18T12:56:05;19.48;;;18.38;;
8476;SDS011;4275;42.854;23.222;2023-09-18T12:58:34;19.17;;;18.08;;
8476;SDS011;4275;42.854;23.222;2023-09-18T13:01:04;19.50;;;18.40;;
8476;SDS011;4275;42.854;23.222;2023-09-18T13:03:35;18.98;;;17.98;;
8476;SDS011;4275;42.854;23.222;2023-09-18T13:06:08;19.08;;;18.02;;
8476;SDS011;4275;42.854;23.222;2023-09-18T13:08:36;19.45;;;18.35;;
8476;SDS011;4275;42.854;23.222;2023-09-18T13:11:03;19.50;;;18.40;;
8476;SDS011;4275;42.854;23.222;2023-09-18T13:13:32;19.25;;;18.15;;
8476;SDS011;4275;42.854;23.222;2023-09-18T13:15:59;19.35;;;18.25;;
8476;SDS011;4275;42.854;23.222;2023-09-18T13:18:30;20.80;;;19.63;;
8476;SDS011;4275;42.854;23.222;2023-09-18T13:20:57;19.35;;;18.25;;
8476;SDS011;4275;42.854;23.222;2023-09-18T13:23:28;19.45;;;18.35;;
8476;SDS011;4275;42.854;23.222;2023-09-18T13:25:59;19.10;;;18.00;;
8476;SDS011;4275;42.854;23.222;2023-09-18T13:28:28;19.65;;;18.55;;
8476;SDS011;4275;42.854;23.222;2023-09-18T13:30:56;19.55;;;18.45;;
8476;SDS011;4275;42.854;23.222;2023-09-18T13:33:25;19.45;;;18.35;;
8476;SDS011;4275;42.854;23.222;2023-09-18T13:35:53;19.35;;;18.25;;
8476;SDS011;4275;42.854;23.222;2023-09-18T13:38:21;19.70;;;18.60;;
8476;SDS011;4275;42.854;23.222;2023-09-18T13:40:48;19.58;;;18.48;;
8476;SDS011;4275;42.854;23.222;2023-09-18T13:43:15;19.60;;;18.50;;
8476;SDS011;4275;42.854;23.222;2023-09-18T13:45:43;19.27;;;18.17;;
8476;SDS011;4275;42.854;23.222;2023-09-18T13:48:10;20.33;;;19.13;;
8476;SDS011;4275;42.854;23.222;2023-09-18T13:50:37;19.63;;;18.42;;
8476;SDS011;4275;42.854;23.222;2023-09-18T13:53:06;20.05;;;18.85;;
8476;SDS011;4275;42.854;23.222;2023-09-18T13:55:33;20.35;;;19.15;;
8476;SDS011;4275;42.854;23.222;2023-09-18T13:58:01;20.05;;;18.85;;
8476;SDS011;4275;42.854;23.222;2023-09-18T14:00:29;20.00;;;18.80;;
8476;SDS011;4275;42.854;23.222;2023-09-18T14:02:56;20.42;;;19.23;;
8476;SDS011;4275;42.854;23.222;2023-09-18T14:05:23;20.67;;;19.48;;
8476;SDS011;4275;42.854;23.222;2023-09-18T14:07:51;20.50;;;19.30;;
8476;SDS011;4275;42.854;23.222;2023-09-18T14:10:26;20.48;;;19.27;;
8476;SDS011;4275;42.854;23.222;2023-09-18T14:12:53;20.98;;;19.77;;
8476;SDS011;4275;42.854;23.222;2023-09-18T14:15:23;20.80;;;19.60;;
8476;SDS011;4275;42.854;23.222;2023-09-18T14:17:51;20.48;;;19.27;;
8476;SDS011;4275;42.854;23.222;2023-09-18T14:20:18;20.83;;;19.73;;
8476;SDS011;4275;42.854;23.222;2023-09-18T14:22:45;20.10;;;19.00;;
8476;SDS011;4275;42.854;23.222;2023-09-18T14:25:15;20.10;;;18.90;;
8476;SDS011;4275;42.854;23.222;2023-09-18T14:27:43;19.75;;;18.65;;
8476;SDS011;4275;42.854;23.222;2023-09-18T14:30:11;20.52;;;19.33;;
8476;SDS011;4275;42.854;23.222;2023-09-18T14:32:38;20.05;;;18.85;;
8476;SDS011;4275;42.854;23.222;2023-09-18T14:35:06;19.35;;;18.25;;
8476;SDS011;4275;42.854;23.222;2023-09-18T14:37:34;19.60;;;18.50;;
8476;SDS011;4275;42.854;23.222;2023-09-18T14:40:01;19.40;;;18.30;;
8476;SDS011;4275;42.854;23.222;2023-09-18T14:42:29;19.33;;;18.23;;
8476;SDS011;4275;42.854;23.222;2023-09-18T14:44:57;19.60;;;18.50;;
8476;SDS011;4275;42.854;23.222;2023-09-18T14:47:26;19.77;;;18.67;;
8476;SDS011;4275;42.854;23.222;2023-09-18T14:49:53;20.00;;;18.90;;
8476;SDS011;4275;42.854;23.222;2023-09-18T14:52:20;20.17;;;19.05;;
8476;SDS011;4275;42.854;23.222;2023-09-18T14:54:50;20.27;;;19.08;;
8476;SDS011;4275;42.854;23.222;2023-09-18T14:57:17;20.17;;;18.98;;
8476;SDS011;4275;42.854;23.222;2023-09-18T14:59:44;20.48;;;19.27;;
8476;SDS011;4275;42.854;23.222;2023-09-18T15:02:14;20.75;;;19.55;;
8476;SDS011;4275;42.854;23.222;2023-09-18T15:04:41;20.80;;;19.60;;